Austin Reinauer — WCX8055 — position and weather

sailwx.info

Track history (hours):
 
Tides and Currents Weather Stations Pressure Air Temp Water Temp Dewpoint Dewpoint Depression Visibility Wind Speed Wind Dir Waves Ship Positions

Austin Reinauer

Owner: REINAUER TRANSPORTATION CO, LP, STATEN ISLAND, NY. More information available from US FCC via Universal Licensing System and Coast Guard Vessel Documentation Center.

Last reported at 2015-Mar-02 14:32 UTC. Time now 2015-Mar-02 14:58 UTC.
Position N 40°40' W 074°02'.

Length 33 m; draft 6.7 m.

Type: Ship (hazmat cat B). MMSI: 366739920.

Date/timePositionNaut miles runAvg speedWind from/ knotsBaromVisibWave heightAir tempDewpointWater temp
2015-Mar-02 14:32N 40°40' W 074°02'0 0.0
2015-Mar-02 13:32N 40°40' W 074°02'0 0.1
2015-Mar-02 12:32N 40°40' W 074°02'0 0.0
2015-Mar-02 11:32N 40°40' W 074°02'0 0.0
2015-Mar-02 10:32N 40°40' W 074°02'0 0.0
2015-Mar-02 09:32N 40°40' W 074°02'0 0.0
2015-Mar-02 08:32N 40°40' W 074°02'0 0.1
2015-Mar-02 07:32N 40°40' W 074°02'0 0.1
2015-Mar-02 06:32N 40°40' W 074°02'0 0.0
2015-Mar-02 05:32N 40°40' W 074°02'0 0.0
2015-Mar-02 04:32N 40°40' W 074°02'0 0.0
2015-Mar-02 03:32N 40°40' W 074°02'0 0.0
2015-Mar-02 02:32N 40°40' W 074°02'0 0.1
2015-Mar-02 01:26N 40°40' W 074°02'0 0.1
2015-Mar-02 00:32N 40°40' W 074°02'0 0.0
2015-Mar-01 23:32N 40°40' W 074°02'0 0.0
2015-Mar-01 22:32N 40°40' W 074°02'0 0.0
2015-Mar-01 21:32N 40°40' W 074°02'0 0.0
2015-Mar-01 20:32N 40°40' W 074°02'0 0.2
2015-Mar-01 19:32N 40°40' W 074°02'0 0.0
2015-Mar-01 18:32N 40°40' W 074°02'2 1.6
2015-Mar-01 17:33N 40°41' W 074°01'11 8.8
2015-Mar-01 16:20N 40°48' W 073°50'7 9.1
2015-Mar-01 15:33N 40°53' W 073°43'1010.2
2015-Mar-01 14:33N 40°58' W 073°32'1110.5
2015-Mar-01 13:33N 41°02' W 073°19'1110.7
2015-Mar-01 12:33N 41°06' W 073°06'1110.7
2015-Mar-01 11:33N 41°12' W 072°54'6 5.5
2015-Mar-01 10:32N 41°18' W 072°55'0 0.0
2015-Mar-01 09:32N 41°18' W 072°55'0 0.0
2015-Mar-01 08:32N 41°18' W 072°55'0 0.0
2015-Mar-01 07:26N 41°18' W 072°55'0 0.0
2015-Mar-01 06:32N 41°18' W 072°55'0 0.0
2015-Mar-01 05:32N 41°18' W 072°55'0 0.0
2015-Mar-01 04:32N 41°18' W 072°55'0 0.0
2015-Mar-01 03:32N 41°18' W 072°55'0 0.0
2015-Mar-01 02:32N 41°18' W 072°55'0 0.0
2015-Mar-01 01:32N 41°18' W 072°55'0 0.0
2015-Mar-01 00:32N 41°18' W 072°55'1 0.9
2015-Feb-28 23:34N 41°17' W 072°55'8 7.8
2015-Feb-28 22:34N 41°10' W 072°59'48 9.5
2015-Feb-28 17:33N 40°48' W 073°55'8 8.0
2015-Feb-28 16:33N 40°41' W 074°01'4 3.5
2015-Feb-28 15:29N 40°39' W 074°05'0 0.0
2015-Feb-28 14:29N 40°39' W 074°05'0 0.0
2015-Feb-28 13:29N 40°39' W 074°05'0 0.0
2015-Feb-28 12:32N 40°39' W 074°05'0 0.0
2015-Feb-28 11:29N 40°39' W 074°05'0 0.0
2015-Feb-28 10:29N 40°39' W 074°05'0 0.0
2015-Feb-28 09:29N 40°39' W 074°05'0 0.0
2015-Feb-28 08:29N 40°39' W 074°05'0 0.0
2015-Feb-28 07:29N 40°39' W 074°05'0 0.0
2015-Feb-28 06:29N 40°39' W 074°05'0 0.0
2015-Feb-28 05:29N 40°39' W 074°05'0 0.0
2015-Feb-28 04:29N 40°39' W 074°05'0 0.0
2015-Feb-28 03:29N 40°39' W 074°05'0 0.0
2015-Feb-28 02:29N 40°39' W 074°05'0 0.0
2015-Feb-28 01:29N 40°39' W 074°05'0 0.0
2015-Feb-28 00:29N 40°39' W 074°05'0 0.0
2015-Feb-27 23:29N 40°39' W 074°05'0 0.0
2015-Feb-27 22:29N 40°39' W 074°05'2 0.4
2015-Feb-27 17:11N 40°38' W 074°08'2 3.4
2015-Feb-27 16:33N 40°39' W 074°05'3 2.9
2015-Feb-27 15:33N 40°37' W 074°03'8 7.9
2015-Feb-27 14:33N 40°30' W 073°57'11 9.0
2015-Feb-27 13:21N 40°29' W 073°43'9 9.6
2015-Feb-27 12:26N 40°30' W 073°32'9 9.9
2015-Feb-27 11:33N 40°32' W 073°20'1010.1
2015-Feb-27 10:33N 40°36' W 073°08'1010.2
2015-Feb-27 09:33N 40°39' W 072°55'1010.3
2015-Feb-27 08:34N 40°43' W 072°43'1010.3
2015-Feb-27 07:33N 40°47' W 072°30'1010.3
2015-Feb-27 06:33N 40°51' W 072°17'1010.5
2015-Feb-27 05:33N 40°55' W 072°05'1110.6
2015-Feb-27 04:33N 40°60' W 071°52'10 9.6
2015-Feb-27 03:33N 41°03' W 071°40'10 9.8
2015-Feb-27 02:33N 41°07' W 071°28'10 9.6
2015-Feb-27 01:33N 41°13' W 071°18'10 9.7
2015-Feb-27 00:33N 41°21' W 071°10'64 2.3
2015-Feb-25 20:15N 42°23' W 070°52'49 7.3
2015-Feb-25 13:33N 41°35' W 070°44'7 7.3
2015-Feb-25 12:33N 41°30' W 070°51'9 9.4
2015-Feb-25 11:33N 41°25' W 071°02'9 9.0
2015-Feb-25 10:33N 41°23' W 071°14'8 7.6
2015-Feb-25 09:33N 41°28' W 071°21'2 2.3
2015-Feb-25 08:32N 41°31' W 071°21'0 0.0
2015-Feb-25 07:32N 41°31' W 071°21'0 0.1
2015-Feb-25 06:32N 41°31' W 071°21'0 0.1
2015-Feb-25 05:32N 41°31' W 071°21'0 0.0
2015-Feb-25 04:32N 41°31' W 071°21'0 0.0
2015-Feb-25 03:31N 41°31' W 071°21'0 0.0
2015-Feb-25 02:31N 41°31' W 071°21'0 0.0
2015-Feb-25 01:31N 41°31' W 071°21'0 0.0
2015-Feb-25 00:31N 41°31' W 071°21'0 0.0
2015-Feb-24 23:31N 41°31' W 071°21'0 0.0
2015-Feb-24 22:31N 41°31' W 071°21'0 0.0
2015-Feb-24 21:22N 41°31' W 071°21'0 0.1
2015-Feb-24 20:31N 41°31' W 071°21'0 0.1
2015-Feb-24 19:31N 41°31' W 071°21'6 5.6
2015-Feb-24 18:22N 41°37' W 071°18'8 9.3
2015-Feb-24 17:33N 41°44' W 071°22'3 2.8
2015-Feb-24 16:27N 41°47' W 071°22'0 0.0
2015-Feb-24 15:32N 41°47' W 071°22'0 0.0
2015-Feb-24 14:32N 41°47' W 071°22'0 0.0
2015-Feb-24 13:32N 41°47' W 071°22'0 0.0
2015-Feb-24 12:32N 41°47' W 071°22'0 0.0
2015-Feb-24 11:32N 41°47' W 071°22'0 0.0
2015-Feb-24 10:32N 41°47' W 071°22'0 0.0
2015-Feb-24 09:32N 41°47' W 071°22'0 0.0
2015-Feb-24 08:32N 41°47' W 071°22'0 0.0
2015-Feb-24 07:32N 41°47' W 071°22'0 0.0
2015-Feb-24 06:32N 41°47' W 071°22'0 0.0
2015-Feb-24 05:32N 41°47' W 071°22'0 0.0
2015-Feb-24 04:32N 41°47' W 071°22'0 0.0
2015-Feb-24 03:29N 41°47' W 071°22'0 0.0
2015-Feb-24 02:29N 41°47' W 071°22'0 0.0
2015-Feb-24 01:29N 41°47' W 071°22'0 0.0
2015-Feb-24 00:29N 41°47' W 071°22'0 0.0
2015-Feb-23 23:29N 41°47' W 071°22'0 0.0
2015-Feb-23 22:26N 41°47' W 071°22'2 2.4
2015-Feb-23 21:33N 41°45' W 071°22'8 6.5
2015-Feb-23 20:18N 41°37' W 071°18'4 5.1
2015-Feb-23 19:33N 41°34' W 071°19'3 2.9
2015-Feb-23 18:24N 41°31' W 071°21'0 0.0
2015-Feb-23 17:27N 41°31' W 071°21'0 0.0
2015-Feb-23 16:27N 41°31' W 071°21'0 0.2
2015-Feb-23 15:32N 41°31' W 071°21'3 2.8
2015-Feb-23 14:33N 41°28' W 071°21'9 9.0
2015-Feb-23 13:33N 41°20' W 071°26'8 8.2
2015-Feb-23 12:33N 41°18' W 071°37'1010.0
2015-Feb-23 11:33N 41°16' W 071°50'1211.5
2015-Feb-23 10:33N 41°14' W 072°05'1211.5
2015-Feb-23 09:33N 41°12' W 072°20'1110.9
2015-Feb-23 08:33N 41°08' W 072°33'10 9.9
2015-Feb-23 07:33N 41°05' W 072°46'9 9.2
2015-Feb-23 06:33N 41°03' W 072°58'9 8.7
2015-Feb-23 05:33N 41°01' W 073°09'9 8.7
2015-Feb-23 04:33N 41°01' W 073°21'7 7.3
2015-Feb-23 03:33N 40°58' W 073°30'6 6.3
2015-Feb-23 02:32N 40°55' W 073°37'9 9.1
2015-Feb-23 01:33N 40°50' W 073°47'7 6.7
2015-Feb-23 00:32N 40°47' W 073°55'4 4.2
2015-Feb-22 23:33N 40°44' W 073°58'7 6.7
2015-Feb-22 22:33N 40°39' W 074°04'1 0.3
2015-Feb-22 19:32N 40°39' W 074°05'0 0.0
2015-Feb-22 18:32N 40°39' W 074°05'0 0.0
2015-Feb-22 17:32N 40°39' W 074°05'0 0.0
2015-Feb-22 16:32N 40°39' W 074°05'0 0.0
2015-Feb-22 15:32N 40°39' W 074°05'0 0.0
2015-Feb-22 14:32N 40°39' W 074°05'0 0.0
2015-Feb-22 13:26N 40°39' W 074°05'0 0.0
2015-Feb-22 12:32N 40°39' W 074°05'0 0.0
2015-Feb-22 11:32N 40°39' W 074°05'0 0.0
2015-Feb-22 10:32N 40°39' W 074°05'0 0.0
2015-Feb-22 09:32N 40°39' W 074°05'0 0.0
2015-Feb-22 08:32N 40°39' W 074°05'0 0.0
2015-Feb-22 07:32N 40°39' W 074°05'0 0.0
2015-Feb-22 06:26N 40°39' W 074°05'0 0.0
2015-Feb-22 05:32N 40°39' W 074°05'0 0.0
2015-Feb-22 04:32N 40°39' W 074°05'0 0.0
2015-Feb-22 03:32N 40°39' W 074°05'1 1.2
2015-Feb-22 02:33N 40°39' W 074°07'0 0.0
2015-Feb-22 01:33N 40°39' W 074°07'0 0.0
2015-Feb-22 00:21N 40°39' W 074°07'0 0.0
2015-Feb-21 23:33N 40°39' W 074°07'1 1.1
2015-Feb-21 22:33N 40°39' W 074°05'0 0.0
2015-Feb-21 21:28N 40°39' W 074°05'5 5.2
2015-Feb-21 20:33N 40°42' W 074°00'14 9.1
2015-Feb-21 19:03N 40°50' W 073°46'5 9.8
2015-Feb-21 18:32N 40°54' W 073°41'10 9.9
2015-Feb-21 17:33N 40°58' W 073°30'1110.5
2015-Feb-21 16:33N 41°02' W 073°17'1111.2
2015-Feb-21 15:33N 41°07' W 073°03'9 9.5
2015-Feb-21 14:33N 41°14' W 072°55'4 0.3
2015-Feb-21 03:08N 41°18' W 072°55'0 0.3
2015-Feb-21 02:26N 41°18' W 072°55'0 0.0
2015-Feb-21 01:33N 41°18' W 072°55'0 0.0
2015-Feb-21 00:33N 41°18' W 072°55'0 0.0
2015-Feb-20 23:33N 41°18' W 072°55'0 0.0
2015-Feb-20 22:33N 41°18' W 072°55'0 0.0
2015-Feb-20 21:33N 41°18' W 072°55'0 0.0
2015-Feb-20 20:33N 41°18' W 072°55'0 0.0
2015-Feb-20 19:32N 41°18' W 072°55'0 0.0
2015-Feb-20 18:33N 41°18' W 072°55'0 0.0
2015-Feb-20 17:33N 41°18' W 072°55'1 0.6
2015-Feb-20 16:33N 41°17' W 072°55'7 7.4
2015-Feb-20 15:34N 41°10' W 072°58'  
Track history (hours):
 
Tides and Currents Weather Stations Pressure Air Temp Water Temp Dewpoint Dewpoint Depression Visibility Wind Speed Wind Dir Waves Ship Positions

Austin Reinauer

Owner: REINAUER TRANSPORTATION CO, LP, STATEN ISLAND, NY. More information available from US FCC via Universal Licensing System and Coast Guard Vessel Documentation Center.

Last reported at 2015-Mar-02 14:32 UTC. Time now 2015-Mar-02 14:58 UTC.
Position N 40°40' W 074°02'.

Length 33 m; draft 6.7 m.

Type: Ship (hazmat cat B). MMSI: 366739920.

Date/timePositionNaut miles runAvg speedWind from/ knotsBaromVisibWave heightAir tempDewpointWater temp
2015-Mar-02 14:32N 40°40' W 074°02'0 0.0
2015-Mar-02 13:32N 40°40' W 074°02'0 0.1
2015-Mar-02 12:32N 40°40' W 074°02'0 0.0
2015-Mar-02 11:32N 40°40' W 074°02'0 0.0
2015-Mar-02 10:32N 40°40' W 074°02'0 0.0
2015-Mar-02 09:32N 40°40' W 074°02'0 0.0
2015-Mar-02 08:32N 40°40' W 074°02'0 0.1
2015-Mar-02 07:32N 40°40' W 074°02'0 0.1
2015-Mar-02 06:32N 40°40' W 074°02'0 0.0
2015-Mar-02 05:32N 40°40' W 074°02'0 0.0
2015-Mar-02 04:32N 40°40' W 074°02'0 0.0
2015-Mar-02 03:32N 40°40' W 074°02'0 0.0
2015-Mar-02 02:32N 40°40' W 074°02'0 0.1
2015-Mar-02 01:26N 40°40' W 074°02'0 0.1
2015-Mar-02 00:32N 40°40' W 074°02'0 0.0
2015-Mar-01 23:32N 40°40' W 074°02'0 0.0
2015-Mar-01 22:32N 40°40' W 074°02'0 0.0
2015-Mar-01 21:32N 40°40' W 074°02'0 0.0
2015-Mar-01 20:32N 40°40' W 074°02'0 0.2
2015-Mar-01 19:32N 40°40' W 074°02'0 0.0
2015-Mar-01 18:32N 40°40' W 074°02'2 1.6
2015-Mar-01 17:33N 40°41' W 074°01'11 8.8
2015-Mar-01 16:20N 40°48' W 073°50'7 9.1
2015-Mar-01 15:33N 40°53' W 073°43'1010.2
2015-Mar-01 14:33N 40°58' W 073°32'1110.5
2015-Mar-01 13:33N 41°02' W 073°19'1110.7
2015-Mar-01 12:33N 41°06' W 073°06'1110.7
2015-Mar-01 11:33N 41°12' W 072°54'6 5.5
2015-Mar-01 10:32N 41°18' W 072°55'0 0.0
2015-Mar-01 09:32N 41°18' W 072°55'0 0.0
2015-Mar-01 08:32N 41°18' W 072°55'0 0.0
2015-Mar-01 07:26N 41°18' W 072°55'0 0.0
2015-Mar-01 06:32N 41°18' W 072°55'0 0.0
2015-Mar-01 05:32N 41°18' W 072°55'0 0.0
2015-Mar-01 04:32N 41°18' W 072°55'0 0.0
2015-Mar-01 03:32N 41°18' W 072°55'0 0.0
2015-Mar-01 02:32N 41°18' W 072°55'0 0.0
2015-Mar-01 01:32N 41°18' W 072°55'0 0.0
2015-Mar-01 00:32N 41°18' W 072°55'1 0.9
2015-Feb-28 23:34N 41°17' W 072°55'8 7.8
2015-Feb-28 22:34N 41°10' W 072°59'48 9.5
2015-Feb-28 17:33N 40°48' W 073°55'8 8.0
2015-Feb-28 16:33N 40°41' W 074°01'4 3.5
2015-Feb-28 15:29N 40°39' W 074°05'0 0.0
2015-Feb-28 14:29N 40°39' W 074°05'0 0.0
2015-Feb-28 13:29N 40°39' W 074°05'0 0.0
2015-Feb-28 12:32N 40°39' W 074°05'0 0.0
2015-Feb-28 11:29N 40°39' W 074°05'0 0.0
2015-Feb-28 10:29N 40°39' W 074°05'0 0.0
2015-Feb-28 09:29N 40°39' W 074°05'0 0.0
2015-Feb-28 08:29N 40°39' W 074°05'0 0.0
2015-Feb-28 07:29N 40°39' W 074°05'0 0.0
2015-Feb-28 06:29N 40°39' W 074°05'0 0.0
2015-Feb-28 05:29N 40°39' W 074°05'0 0.0
2015-Feb-28 04:29N 40°39' W 074°05'0 0.0
2015-Feb-28 03:29N 40°39' W 074°05'0 0.0
2015-Feb-28 02:29N 40°39' W 074°05'0 0.0
2015-Feb-28 01:29N 40°39' W 074°05'0 0.0
2015-Feb-28 00:29N 40°39' W 074°05'0 0.0
2015-Feb-27 23:29N 40°39' W 074°05'0 0.0
2015-Feb-27 22:29N 40°39' W 074°05'2 0.4
2015-Feb-27 17:11N 40°38' W 074°08'2 3.4
2015-Feb-27 16:33N 40°39' W 074°05'3 2.9
2015-Feb-27 15:33N 40°37' W 074°03'8 7.9
2015-Feb-27 14:33N 40°30' W 073°57'11 9.0
2015-Feb-27 13:21N 40°29' W 073°43'9 9.6
2015-Feb-27 12:26N 40°30' W 073°32'9 9.9
2015-Feb-27 11:33N 40°32' W 073°20'1010.1
2015-Feb-27 10:33N 40°36' W 073°08'1010.2
2015-Feb-27 09:33N 40°39' W 072°55'1010.3
2015-Feb-27 08:34N 40°43' W 072°43'1010.3
2015-Feb-27 07:33N 40°47' W 072°30'1010.3
2015-Feb-27 06:33N 40°51' W 072°17'1010.5
2015-Feb-27 05:33N 40°55' W 072°05'1110.6
2015-Feb-27 04:33N 40°60' W 071°52'10 9.6
2015-Feb-27 03:33N 41°03' W 071°40'10 9.8
2015-Feb-27 02:33N 41°07' W 071°28'10 9.6
2015-Feb-27 01:33N 41°13' W 071°18'10 9.7
2015-Feb-27 00:33N 41°21' W 071°10'64 2.3
2015-Feb-25 20:15N 42°23' W 070°52'49 7.3
2015-Feb-25 13:33N 41°35' W 070°44'7 7.3
2015-Feb-25 12:33N 41°30' W 070°51'9 9.4
2015-Feb-25 11:33N 41°25' W 071°02'9 9.0
2015-Feb-25 10:33N 41°23' W 071°14'8 7.6
2015-Feb-25 09:33N 41°28' W 071°21'2 2.3
2015-Feb-25 08:32N 41°31' W 071°21'0 0.0
2015-Feb-25 07:32N 41°31' W 071°21'0 0.1
2015-Feb-25 06:32N 41°31' W 071°21'0 0.1
2015-Feb-25 05:32N 41°31' W 071°21'0 0.0
2015-Feb-25 04:32N 41°31' W 071°21'0 0.0
2015-Feb-25 03:31N 41°31' W 071°21'0 0.0
2015-Feb-25 02:31N 41°31' W 071°21'0 0.0
2015-Feb-25 01:31N 41°31' W 071°21'0 0.0
2015-Feb-25 00:31N 41°31' W 071°21'0 0.0
2015-Feb-24 23:31N 41°31' W 071°21'0 0.0
2015-Feb-24 22:31N 41°31' W 071°21'0 0.0
2015-Feb-24 21:22N 41°31' W 071°21'0 0.1
2015-Feb-24 20:31N 41°31' W 071°21'0 0.1
2015-Feb-24 19:31N 41°31' W 071°21'6 5.6
2015-Feb-24 18:22N 41°37' W 071°18'8 9.3
2015-Feb-24 17:33N 41°44' W 071°22'3 2.8
2015-Feb-24 16:27N 41°47' W 071°22'0 0.0
2015-Feb-24 15:32N 41°47' W 071°22'0 0.0
2015-Feb-24 14:32N 41°47' W 071°22'0 0.0
2015-Feb-24 13:32N 41°47' W 071°22'0 0.0
2015-Feb-24 12:32N 41°47' W 071°22'0 0.0
2015-Feb-24 11:32N 41°47' W 071°22'0 0.0
2015-Feb-24 10:32N 41°47' W 071°22'0 0.0
2015-Feb-24 09:32N 41°47' W 071°22'0 0.0
2015-Feb-24 08:32N 41°47' W 071°22'0 0.0
2015-Feb-24 07:32N 41°47' W 071°22'0 0.0
2015-Feb-24 06:32N 41°47' W 071°22'0 0.0
2015-Feb-24 05:32N 41°47' W 071°22'0 0.0
2015-Feb-24 04:32N 41°47' W 071°22'0 0.0
2015-Feb-24 03:29N 41°47' W 071°22'0 0.0
2015-Feb-24 02:29N 41°47' W 071°22'0 0.0
2015-Feb-24 01:29N 41°47' W 071°22'0 0.0
2015-Feb-24 00:29N 41°47' W 071°22'0 0.0
2015-Feb-23 23:29N 41°47' W 071°22'0 0.0
2015-Feb-23 22:26N 41°47' W 071°22'2 2.4
2015-Feb-23 21:33N 41°45' W 071°22'8 6.5
2015-Feb-23 20:18N 41°37' W 071°18'4 5.1
2015-Feb-23 19:33N 41°34' W 071°19'3 2.9
2015-Feb-23 18:24N 41°31' W 071°21'0 0.0
2015-Feb-23 17:27N 41°31' W 071°21'0 0.0
2015-Feb-23 16:27N 41°31' W 071°21'0 0.2
2015-Feb-23 15:32N 41°31' W 071°21'3 2.8
2015-Feb-23 14:33N 41°28' W 071°21'9 9.0
2015-Feb-23 13:33N 41°20' W 071°26'8 8.2
2015-Feb-23 12:33N 41°18' W 071°37'1010.0
2015-Feb-23 11:33N 41°16' W 071°50'1211.5
2015-Feb-23 10:33N 41°14' W 072°05'1211.5
2015-Feb-23 09:33N 41°12' W 072°20'1110.9
2015-Feb-23 08:33N 41°08' W 072°33'10 9.9
2015-Feb-23 07:33N 41°05' W 072°46'9 9.2
2015-Feb-23 06:33N 41°03' W 072°58'9 8.7
2015-Feb-23 05:33N 41°01' W 073°09'9 8.7
2015-Feb-23 04:33N 41°01' W 073°21'7 7.3
2015-Feb-23 03:33N 40°58' W 073°30'6 6.3
2015-Feb-23 02:32N 40°55' W 073°37'9 9.1
2015-Feb-23 01:33N 40°50' W 073°47'7 6.7
2015-Feb-23 00:32N 40°47' W 073°55'4 4.2
2015-Feb-22 23:33N 40°44' W 073°58'7 6.7
2015-Feb-22 22:33N 40°39' W 074°04'1 0.3
2015-Feb-22 19:32N 40°39' W 074°05'0 0.0
2015-Feb-22 18:32N 40°39' W 074°05'0 0.0
2015-Feb-22 17:32N 40°39' W 074°05'0 0.0
2015-Feb-22 16:32N 40°39' W 074°05'0 0.0
2015-Feb-22 15:32N 40°39' W 074°05'0 0.0
2015-Feb-22 14:32N 40°39' W 074°05'0 0.0
2015-Feb-22 13:26N 40°39' W 074°05'0 0.0
2015-Feb-22 12:32N 40°39' W 074°05'0 0.0
2015-Feb-22 11:32N 40°39' W 074°05'0 0.0
2015-Feb-22 10:32N 40°39' W 074°05'0 0.0
2015-Feb-22 09:32N 40°39' W 074°05'0 0.0
2015-Feb-22 08:32N 40°39' W 074°05'0 0.0
2015-Feb-22 07:32N 40°39' W 074°05'0 0.0
2015-Feb-22 06:26N 40°39' W 074°05'0 0.0
2015-Feb-22 05:32N 40°39' W 074°05'0 0.0
2015-Feb-22 04:32N 40°39' W 074°05'0 0.0
2015-Feb-22 03:32N 40°39' W 074°05'1 1.2
2015-Feb-22 02:33N 40°39' W 074°07'0 0.0
2015-Feb-22 01:33N 40°39' W 074°07'0 0.0
2015-Feb-22 00:21N 40°39' W 074°07'0 0.0
2015-Feb-21 23:33N 40°39' W 074°07'1 1.1
2015-Feb-21 22:33N 40°39' W 074°05'0 0.0
2015-Feb-21 21:28N 40°39' W 074°05'5 5.2
2015-Feb-21 20:33N 40°42' W 074°00'14 9.1
2015-Feb-21 19:03N 40°50' W 073°46'5 9.8
2015-Feb-21 18:32N 40°54' W 073°41'10 9.9
2015-Feb-21 17:33N 40°58' W 073°30'1110.5
2015-Feb-21 16:33N 41°02' W 073°17'1111.2
2015-Feb-21 15:33N 41°07' W 073°03'9 9.5
2015-Feb-21 14:33N 41°14' W 072°55'4 0.3
2015-Feb-21 03:08N 41°18' W 072°55'0 0.3
2015-Feb-21 02:26N 41°18' W 072°55'0 0.0
2015-Feb-21 01:33N 41°18' W 072°55'0 0.0
2015-Feb-21 00:33N 41°18' W 072°55'0 0.0
2015-Feb-20 23:33N 41°18' W 072°55'0 0.0
2015-Feb-20 22:33N 41°18' W 072°55'0 0.0
2015-Feb-20 21:33N 41°18' W 072°55'0 0.0
2015-Feb-20 20:33N 41°18' W 072°55'0 0.0
2015-Feb-20 19:32N 41°18' W 072°55'0 0.0
2015-Feb-20 18:33N 41°18' W 072°55'0 0.0
2015-Feb-20 17:33N 41°18' W 072°55'1 0.6
2015-Feb-20 16:33N 41°17' W 072°55'7 7.4
2015-Feb-20 15:34N 41°10' W 072°58'  

Dump ship's entire track history